createdAt,value
2022-08-17T00:00:51.808Z,4.70
2022-08-17T00:01:52.382Z,6.70
2022-08-17T00:02:42.915Z,7.10
2022-08-17T00:03:41.874Z,4.30
2022-08-17T00:04:41.850Z,5.00
2022-08-17T00:05:41.929Z,5.90
2022-08-17T00:06:41.876Z,4.90
2022-08-17T00:07:41.881Z,6.20
2022-08-17T00:08:41.806Z,5.10
2022-08-17T00:09:41.809Z,5.20
2022-08-17T00:10:41.778Z,5.50
2022-08-17T00:11:41.767Z,5.20
2022-08-17T00:12:44.636Z,4.80
2022-08-17T00:13:42.731Z,7.60
2022-08-17T00:14:41.735Z,4.80
2022-08-17T00:15:41.726Z,6.60
2022-08-17T00:16:55.313Z,5.20
2022-08-17T00:17:42.687Z,8.60
2022-08-17T00:19:06.483Z,4.20
2022-08-17T00:19:42.655Z,6.90
2022-08-17T00:20:41.708Z,6.20
2022-08-17T00:22:29.822Z,4.70
2022-08-17T00:22:42.691Z,5.70
2022-08-17T00:23:47.680Z,4.60
2022-08-17T00:24:42.605Z,5.30
2022-08-17T00:25:41.596Z,5.60
2022-08-17T00:26:44.969Z,8.10
2022-08-17T00:27:41.575Z,6.00
2022-08-17T00:28:41.564Z,6.20
2022-08-17T00:29:41.607Z,5.20
2022-08-17T00:30:53.033Z,4.70
2022-08-17T00:31:42.502Z,5.70
2022-08-17T00:33:14.906Z,5.30
2022-08-17T00:33:42.472Z,4.70
2022-08-17T00:34:41.503Z,5.00
2022-08-17T00:35:41.443Z,5.10
2022-08-17T00:36:42.412Z,3.80
2022-08-17T00:37:41.483Z,6.20
2022-08-17T00:38:41.471Z,4.20
2022-08-17T00:39:41.473Z,5.20
2022-08-17T00:40:44.854Z,4.60
2022-08-17T00:41:42.441Z,5.60
2022-08-17T00:42:41.409Z,4.00
2022-08-17T00:43:41.361Z,4.30
2022-08-17T00:44:41.362Z,5.90
2022-08-17T00:45:41.330Z,5.20
2022-08-17T00:46:41.440Z,5.30
2022-08-17T00:47:41.309Z,4.60
2022-08-17T00:48:42.009Z,5.30
2022-08-17T00:49:41.296Z,6.80
2022-08-17T00:50:41.308Z,6.50
2022-08-17T00:51:41.268Z,5.70
2022-08-17T00:52:41.298Z,5.10
2022-08-17T00:53:41.239Z,5.90
2022-08-17T00:54:42.230Z,5.20
2022-08-17T00:55:41.218Z,5.20
2022-08-17T00:56:41.206Z,5.60
2022-08-17T00:57:41.208Z,5.20
2022-08-17T00:58:41.205Z,4.50
2022-08-17T00:59:41.169Z,5.20
2022-08-17T01:00:41.199Z,5.10
2022-08-17T01:01:41.160Z,7.20
2022-08-17T01:02:42.532Z,4.80
2022-08-17T01:03:41.095Z,4.60
2022-08-17T01:04:41.102Z,5.00
2022-08-17T01:05:42.490Z,5.20
2022-08-17T01:06:41.161Z,5.70
2022-08-17T01:07:41.068Z,5.10
2022-08-17T01:08:41.046Z,5.00
2022-08-17T01:09:41.064Z,4.60
2022-08-17T01:10:58.625Z,6.30
2022-08-17T01:11:42.024Z,6.20
2022-08-17T01:12:41.005Z,5.50
2022-08-17T01:13:41.687Z,5.10
2022-08-17T01:14:40.942Z,4.80
2022-08-17T01:15:40.986Z,5.60
2022-08-17T01:16:40.944Z,4.80
2022-08-17T01:17:40.932Z,5.00
2022-08-17T01:18:40.983Z,4.60
2022-08-17T01:19:40.939Z,5.70
2022-08-17T01:20:48.101Z,5.30
2022-08-17T01:21:41.901Z,7.10
2022-08-17T01:22:40.854Z,5.00
2022-08-17T01:23:40.870Z,5.70
2022-08-17T01:24:40.851Z,5.00
2022-08-17T01:25:40.830Z,5.60
2022-08-17T01:26:40.809Z,5.10
2022-08-17T01:27:40.890Z,5.40
2022-08-17T01:28:53.965Z,5.70
2022-08-17T01:29:41.790Z,6.00
2022-08-17T01:30:58.723Z,5.30
2022-08-17T01:31:41.868Z,5.30
2022-08-17T01:32:40.728Z,7.00
2022-08-17T01:33:40.739Z,5.00
2022-08-17T01:34:43.787Z,4.60
2022-08-17T01:35:41.707Z,4.80
2022-08-17T01:36:40.688Z,7.10
2022-08-17T01:37:40.676Z,5.70
2022-08-17T01:38:40.652Z,5.40
2022-08-17T01:39:40.712Z,5.40
2022-08-17T01:40:40.686Z,4.90
2022-08-17T01:41:40.608Z,4.80
2022-08-17T01:42:40.637Z,5.20
2022-08-17T01:43:40.606Z,7.80
2022-08-17T01:44:40.565Z,5.70
2022-08-17T01:45:40.566Z,6.30
2022-08-17T01:46:40.576Z,6.10
2022-08-17T01:47:40.592Z,4.60
2022-08-17T01:48:40.534Z,4.90
2022-08-17T01:49:40.675Z,6.10
2022-08-17T01:50:40.584Z,5.10
2022-08-17T01:51:40.473Z,5.60
2022-08-17T01:52:40.493Z,4.90
2022-08-17T01:53:40.493Z,6.00
2022-08-17T01:54:40.443Z,6.30
2022-08-17T01:55:40.472Z,5.00
2022-08-17T01:56:40.404Z,5.20
2022-08-17T01:57:40.390Z,5.50
2022-08-17T01:58:40.412Z,6.00
2022-08-17T01:59:40.474Z,6.30
2022-08-17T02:00:46.885Z,5.00
2022-08-17T02:01:41.406Z,5.80
2022-08-17T02:02:40.372Z,5.60
2022-08-17T02:03:40.348Z,5.90
2022-08-17T02:04:40.322Z,5.30
2022-08-17T02:05:40.322Z,5.60
2022-08-17T02:06:45.214Z,5.20
2022-08-17T02:07:59.773Z,5.20
2022-08-17T02:09:01.519Z,5.50
2022-08-17T02:09:41.261Z,5.50
2022-08-17T02:10:40.309Z,6.00
2022-08-17T02:11:41.327Z,6.20
2022-08-17T02:12:40.211Z,5.70
2022-08-17T02:13:40.207Z,6.20
2022-08-17T02:14:40.210Z,5.90
2022-08-17T02:15:40.169Z,6.10
2022-08-17T02:16:40.178Z,6.10
2022-08-17T02:17:40.137Z,6.20
2022-08-17T02:18:40.147Z,6.40
2022-08-17T02:19:40.202Z,5.10
2022-08-17T02:20:42.581Z,6.60
2022-08-17T02:21:40.091Z,6.60
2022-08-17T02:22:40.067Z,6.80
2022-08-17T02:23:40.180Z,6.30
2022-08-17T02:24:59.868Z,6.90
2022-08-17T02:25:41.056Z,7.20
2022-08-17T02:26:40.037Z,8.80
2022-08-17T02:27:40.019Z,6.20
2022-08-17T02:28:40.026Z,7.00
2022-08-17T02:29:40.079Z,7.30
2022-08-17T02:31:02.790Z,6.10
2022-08-17T02:31:40.970Z,7.40
2022-08-17T02:32:39.997Z,6.40
2022-08-17T02:33:42.743Z,7.20
2022-08-17T02:34:39.944Z,7.60
2022-08-17T02:35:39.965Z,6.00
2022-08-17T02:36:39.914Z,8.10
2022-08-17T02:37:39.884Z,6.10
2022-08-17T02:38:39.888Z,6.70
2022-08-17T02:39:39.980Z,6.80
2022-08-17T02:40:39.867Z,6.80
2022-08-17T02:41:39.897Z,5.60
2022-08-17T02:42:39.849Z,6.80
2022-08-17T02:43:39.859Z,7.80
2022-08-17T02:44:40.264Z,7.70
2022-08-17T02:45:39.781Z,9.00
2022-08-17T02:46:39.796Z,8.00
2022-08-17T02:47:39.801Z,6.40
2022-08-17T02:48:39.761Z,7.10
2022-08-17T02:49:39.721Z,6.30
2022-08-17T02:50:39.751Z,6.20
2022-08-17T02:51:39.720Z,7.10
2022-08-17T02:52:42.978Z,6.90
2022-08-17T02:53:39.710Z,5.80
2022-08-17T02:54:42.379Z,8.00
2022-08-17T02:55:39.649Z,7.20
2022-08-17T02:56:39.669Z,10.30
2022-08-17T02:57:39.621Z,6.40
2022-08-17T02:58:39.662Z,8.30
2022-08-17T02:59:39.609Z,7.00
2022-08-17T03:00:39.632Z,6.20
2022-08-17T03:01:39.656Z,6.00
2022-08-17T03:02:39.595Z,6.70
2022-08-17T03:03:39.559Z,7.00
2022-08-17T03:04:39.557Z,8.70
2022-08-17T03:05:39.507Z,7.40
2022-08-17T03:06:39.545Z,5.80
2022-08-17T03:07:39.486Z,8.00
2022-08-17T03:08:39.516Z,5.60
2022-08-17T03:09:39.460Z,6.40
2022-08-17T03:10:39.467Z,7.20
2022-08-17T03:11:39.466Z,5.90
2022-08-17T03:12:39.436Z,7.00
2022-08-17T03:13:39.457Z,6.50
2022-08-17T03:14:41.557Z,6.40
2022-08-17T03:15:40.642Z,6.10
2022-08-17T03:16:39.378Z,6.60
2022-08-17T03:17:39.402Z,5.70
2022-08-17T03:18:39.353Z,8.10
2022-08-17T03:19:39.632Z,5.60
2022-08-17T03:20:39.353Z,6.40
2022-08-17T03:21:39.345Z,6.00
2022-08-17T03:22:39.323Z,6.60
2022-08-17T03:23:39.385Z,6.00
2022-08-17T03:24:39.352Z,6.00
2022-08-17T03:25:39.303Z,5.80
2022-08-17T03:26:39.243Z,7.10
2022-08-17T03:27:39.464Z,5.70
2022-08-17T03:28:39.271Z,6.60
2022-08-17T03:29:39.241Z,6.50
2022-08-17T03:30:39.871Z,5.90
2022-08-17T03:31:39.170Z,8.30
2022-08-17T03:32:39.671Z,6.60
2022-08-17T03:33:39.180Z,6.10
2022-08-17T03:34:39.165Z,7.20
2022-08-17T03:35:39.131Z,6.60
2022-08-17T03:36:39.165Z,5.50
2022-08-17T03:37:39.128Z,5.50
2022-08-17T03:38:39.589Z,5.70
2022-08-17T03:39:39.142Z,5.80
2022-08-17T03:40:59.123Z,6.00
2022-08-17T03:41:40.128Z,6.00
2022-08-17T03:42:39.049Z,5.70
2022-08-17T03:43:39.031Z,6.10
2022-08-17T03:44:39.018Z,6.80
2022-08-17T03:45:39.059Z,5.20
2022-08-17T03:46:39.017Z,5.30
2022-08-17T03:47:39.011Z,6.30
2022-08-17T03:48:38.996Z,5.80
2022-08-17T03:49:38.971Z,7.40
2022-08-17T03:50:38.969Z,5.30
2022-08-17T03:51:38.935Z,5.70
2022-08-17T03:52:38.928Z,5.50
2022-08-17T03:53:38.943Z,5.80
2022-08-17T03:54:39.578Z,5.00
2022-08-17T03:55:38.874Z,5.70
2022-08-17T03:56:38.880Z,5.10
2022-08-17T03:57:38.845Z,5.70
2022-08-17T03:58:38.834Z,6.70
2022-08-17T03:59:38.873Z,5.60
2022-08-17T04:00:39.668Z,5.40
2022-08-17T04:01:38.914Z,6.40
2022-08-17T04:02:38.783Z,6.50
2022-08-17T04:03:38.792Z,7.60
2022-08-17T04:04:38.836Z,5.50
2022-08-17T04:05:38.764Z,6.40
2022-08-17T04:06:38.783Z,6.70
2022-08-17T04:07:38.702Z,6.80
2022-08-17T04:08:38.716Z,5.80
2022-08-17T04:09:38.736Z,5.40
2022-08-17T04:10:44.870Z,6.60
2022-08-17T04:11:39.674Z,5.60
2022-08-17T04:12:38.665Z,7.40
2022-08-17T04:13:38.635Z,5.00
2022-08-17T04:14:50.830Z,5.20
2022-08-17T04:15:39.623Z,6.50
2022-08-17T04:16:38.669Z,5.40
2022-08-17T04:17:38.593Z,5.00
2022-08-17T04:18:38.598Z,5.90
2022-08-17T04:19:38.611Z,5.40
2022-08-17T04:20:38.597Z,6.20
2022-08-17T04:21:38.538Z,5.80
2022-08-17T04:22:38.523Z,5.10
2022-08-17T04:23:38.499Z,5.70
2022-08-17T04:24:38.551Z,5.00
2022-08-17T04:25:38.557Z,5.10
2022-08-17T04:26:53.283Z,5.80
2022-08-17T04:27:39.457Z,5.90
2022-08-17T04:28:38.445Z,5.10
2022-08-17T04:29:54.165Z,5.50
2022-08-17T04:30:39.517Z,7.50
2022-08-17T04:31:38.395Z,5.60
2022-08-17T04:33:05.011Z,6.70
2022-08-17T04:33:39.407Z,5.70
2022-08-17T04:34:38.372Z,5.90
2022-08-17T04:35:38.348Z,5.00
2022-08-17T04:36:38.347Z,7.00
2022-08-17T04:37:38.326Z,7.70
2022-08-17T04:38:38.316Z,7.10
2022-08-17T04:39:39.295Z,8.80
2022-08-17T04:40:38.291Z,6.10
2022-08-17T04:41:38.304Z,5.70
2022-08-17T04:42:39.297Z,7.80
2022-08-17T04:43:38.234Z,7.30
2022-08-17T04:44:38.255Z,8.50
2022-08-17T04:45:38.252Z,5.60
2022-08-17T04:46:38.231Z,7.40
2022-08-17T04:47:38.183Z,8.80
2022-08-17T04:48:38.281Z,7.00
2022-08-17T04:49:38.162Z,6.20
2022-08-17T04:50:38.212Z,6.90
2022-08-17T04:51:38.134Z,6.30
2022-08-17T04:52:43.354Z,7.10
2022-08-17T04:53:39.132Z,7.20
2022-08-17T04:54:38.122Z,6.80
2022-08-17T04:55:38.093Z,7.80
2022-08-17T04:56:38.092Z,6.80
2022-08-17T04:57:41.808Z,7.50
2022-08-17T04:58:39.123Z,7.40
2022-08-17T04:59:38.021Z,9.20
2022-08-17T05:00:38.040Z,8.20
2022-08-17T05:01:38.028Z,7.00
2022-08-17T05:02:38.010Z,7.40
2022-08-17T05:03:39.043Z,6.80
2022-08-17T05:04:37.969Z,6.30
2022-08-17T05:05:37.959Z,6.10
2022-08-17T05:06:37.952Z,7.00
2022-08-17T05:07:37.958Z,7.20
2022-08-17T05:08:37.957Z,7.60
2022-08-17T05:09:37.915Z,9.00
2022-08-17T05:10:37.898Z,7.10
2022-08-17T05:11:38.879Z,8.40
2022-08-17T05:12:38.908Z,7.70
2022-08-17T05:13:37.837Z,6.30
2022-08-17T05:14:37.843Z,5.60
2022-08-17T05:15:37.838Z,6.10
2022-08-17T05:16:38.817Z,7.60
2022-08-17T05:17:37.816Z,7.00
2022-08-17T05:18:37.800Z,9.50
2022-08-17T05:19:37.766Z,9.00
2022-08-17T05:20:37.748Z,10.90
2022-08-17T05:21:37.763Z,7.60
2022-08-17T05:22:37.735Z,8.40
2022-08-17T05:23:42.494Z,6.40
2022-08-17T05:24:40.774Z,7.50
2022-08-17T05:25:38.684Z,10.50
2022-08-17T05:26:37.799Z,11.30
2022-08-17T05:27:37.664Z,9.90
2022-08-17T05:28:37.668Z,8.10
2022-08-17T05:29:37.670Z,5.70
2022-08-17T05:30:37.623Z,9.60
2022-08-17T05:31:37.641Z,8.20
2022-08-17T05:32:40.301Z,7.90
2022-08-17T05:33:40.409Z,8.30
2022-08-17T05:34:38.630Z,9.10
2022-08-17T05:35:37.558Z,7.40
2022-08-17T05:36:42.812Z,9.00
2022-08-17T05:37:38.763Z,8.90
2022-08-17T05:38:37.566Z,7.50
2022-08-17T05:39:37.525Z,6.10
2022-08-17T05:40:37.482Z,6.90
2022-08-17T05:41:37.615Z,10.20
2022-08-17T05:42:37.481Z,6.60
2022-08-17T05:43:37.443Z,8.00
2022-08-17T05:44:37.463Z,6.10
2022-08-17T05:45:54.517Z,7.00
2022-08-17T05:46:38.418Z,9.80
2022-08-17T05:47:37.423Z,5.70
2022-08-17T05:48:39.612Z,6.90
2022-08-17T05:49:37.374Z,6.50
2022-08-17T05:50:37.369Z,8.80
2022-08-17T05:51:37.451Z,8.30
2022-08-17T05:52:37.380Z,7.40
2022-08-17T05:53:37.320Z,7.20
2022-08-17T05:54:37.319Z,8.30
2022-08-17T05:55:37.410Z,8.70
2022-08-17T05:56:37.301Z,7.20
2022-08-17T05:57:42.121Z,8.50
2022-08-17T05:58:38.267Z,8.80
2022-08-17T05:59:37.259Z,8.40
2022-08-17T06:00:37.384Z,7.60
2022-08-17T06:01:38.303Z,7.80
2022-08-17T06:02:37.205Z,8.90
2022-08-17T06:03:37.205Z,6.60
2022-08-17T06:04:37.281Z,8.50
2022-08-17T06:05:37.225Z,7.00
2022-08-17T06:06:37.157Z,11.10
2022-08-17T06:07:37.175Z,7.30
2022-08-17T06:08:37.125Z,8.20
2022-08-17T06:09:37.140Z,9.70
2022-08-17T06:10:37.105Z,7.60
2022-08-17T06:11:37.306Z,11.80
2022-08-17T06:12:37.135Z,10.90
2022-08-17T06:13:37.076Z,9.40
2022-08-17T06:14:37.125Z,10.00
2022-08-17T06:15:37.087Z,9.90
2022-08-17T06:16:37.045Z,9.50
2022-08-17T06:17:37.015Z,8.30
2022-08-17T06:18:37.142Z,9.30
2022-08-17T06:19:36.988Z,6.80
2022-08-17T06:20:36.993Z,9.10
2022-08-17T06:21:36.973Z,7.20
2022-08-17T06:22:37.200Z,8.10
2022-08-17T06:23:37.369Z,7.30
2022-08-17T06:24:37.223Z,9.60
2022-08-17T06:25:36.934Z,9.50
2022-08-17T06:26:42.331Z,8.90
2022-08-17T06:27:37.903Z,8.20
2022-08-17T06:28:36.872Z,7.30
2022-08-17T06:29:37.071Z,7.00
2022-08-17T06:31:00.403Z,10.10
2022-08-17T06:31:37.836Z,7.40
2022-08-17T06:32:36.828Z,8.00
2022-08-17T06:33:36.849Z,7.90
2022-08-17T06:34:36.810Z,6.60
2022-08-17T06:35:36.913Z,6.20
2022-08-17T06:36:36.805Z,6.10
2022-08-17T06:37:36.790Z,6.10
2022-08-17T06:38:37.573Z,8.40
2022-08-17T06:39:36.957Z,6.20
2022-08-17T06:40:36.716Z,6.90
2022-08-17T06:41:38.066Z,7.40
2022-08-17T06:43:00.874Z,6.60
2022-08-17T06:43:37.893Z,5.90
2022-08-17T06:44:43.434Z,6.40
2022-08-17T06:45:37.667Z,6.20
2022-08-17T06:46:36.646Z,8.40
2022-08-17T06:47:36.672Z,7.50
2022-08-17T06:48:36.626Z,6.10
2022-08-17T06:49:36.648Z,6.60
2022-08-17T06:50:36.586Z,6.10
2022-08-17T06:51:36.606Z,6.60
2022-08-17T06:52:46.906Z,6.60
2022-08-17T06:53:37.674Z,6.40
2022-08-17T06:54:36.567Z,8.10
2022-08-17T06:55:38.257Z,6.90
2022-08-17T06:56:54.586Z,8.00
2022-08-17T06:57:37.534Z,6.80
2022-08-17T06:58:36.692Z,7.50
2022-08-17T06:59:55.444Z,6.00
2022-08-17T07:00:37.628Z,9.20
2022-08-17T07:01:36.554Z,5.90
2022-08-17T07:03:02.278Z,8.20
2022-08-17T07:03:37.435Z,5.60
2022-08-17T07:04:36.513Z,8.10
2022-08-17T07:05:36.407Z,7.30
2022-08-17T07:06:37.721Z,8.40
2022-08-17T07:07:36.490Z,7.60
2022-08-17T07:08:36.391Z,8.00
2022-08-17T07:09:36.419Z,5.60
2022-08-17T07:10:36.337Z,8.90
2022-08-17T07:11:36.359Z,6.90
2022-08-17T07:12:36.352Z,9.00
2022-08-17T07:13:36.311Z,6.80
2022-08-17T07:14:36.471Z,9.70
2022-08-17T07:15:36.271Z,11.30
2022-08-17T07:16:36.260Z,7.80
2022-08-17T07:17:47.045Z,5.70
2022-08-17T07:18:37.261Z,7.60
2022-08-17T07:19:36.285Z,8.80
2022-08-17T07:20:36.209Z,7.40
2022-08-17T07:21:36.200Z,8.70
2022-08-17T07:22:57.814Z,8.30
2022-08-17T07:23:37.180Z,6.60
2022-08-17T07:24:36.160Z,10.20
2022-08-17T07:25:36.242Z,10.30
2022-08-17T07:26:36.160Z,9.70
2022-08-17T07:27:36.137Z,10.90
2022-08-17T07:28:36.147Z,8.20
2022-08-17T07:29:36.119Z,7.50
2022-08-17T07:30:42.971Z,12.80
2022-08-17T07:31:37.107Z,7.20
2022-08-17T07:32:36.136Z,7.10
2022-08-17T07:33:36.056Z,5.70
2022-08-17T07:34:36.056Z,9.00
2022-08-17T07:35:40.856Z,8.30
2022-08-17T07:36:37.052Z,8.00
2022-08-17T07:37:36.006Z,7.70
2022-08-17T07:38:36.006Z,6.70
2022-08-17T07:39:36.033Z,9.30
2022-08-17T07:40:37.141Z,9.40
2022-08-17T07:41:57.430Z,9.80
2022-08-17T07:42:37.713Z,9.60
2022-08-17T07:43:36.106Z,7.50
2022-08-17T07:44:35.953Z,8.60
2022-08-17T07:45:35.944Z,9.40
2022-08-17T07:46:35.895Z,12.50
2022-08-17T07:47:36.091Z,9.00
2022-08-17T07:48:35.879Z,10.30
2022-08-17T07:49:35.885Z,9.80
2022-08-17T07:50:35.840Z,11.40
2022-08-17T07:51:36.027Z,10.30
2022-08-17T07:52:50.874Z,9.20
2022-08-17T07:53:36.803Z,11.70
2022-08-17T07:54:35.797Z,9.90
2022-08-17T07:55:35.775Z,8.00
2022-08-17T07:56:35.842Z,10.50
2022-08-17T07:57:35.784Z,6.70
2022-08-17T07:58:35.832Z,7.20
2022-08-17T07:59:36.032Z,12.00
2022-08-17T08:00:35.731Z,7.00
2022-08-17T08:01:39.448Z,9.20
2022-08-17T08:02:36.721Z,8.30
2022-08-17T08:03:35.971Z,8.80
2022-08-17T08:05:50.178Z,8.20
2022-08-17T08:06:36.800Z,10.80
2022-08-17T08:07:35.659Z,9.60
2022-08-17T08:08:35.618Z,9.70
2022-08-17T08:09:35.582Z,10.80
2022-08-17T08:10:35.717Z,7.40
2022-08-17T08:11:35.730Z,7.70
2022-08-17T08:12:35.603Z,8.30
2022-08-17T08:13:35.638Z,9.80
2022-08-17T08:14:36.040Z,7.80
2022-08-17T08:15:35.613Z,8.10
2022-08-17T08:16:35.527Z,7.00
2022-08-17T08:17:35.591Z,7.80
2022-08-17T08:18:53.890Z,10.00
2022-08-17T08:19:36.508Z,6.60
2022-08-17T08:20:51.907Z,9.10
2022-08-17T08:21:36.462Z,8.20
2022-08-17T08:22:35.446Z,8.30
2022-08-17T08:23:35.404Z,9.50
2022-08-17T08:24:35.428Z,13.90
2022-08-17T08:25:35.478Z,8.10
2022-08-17T08:26:35.456Z,9.40
2022-08-17T08:27:35.424Z,11.20
2022-08-17T08:28:35.457Z,7.40
2022-08-17T08:29:35.364Z,8.10
2022-08-17T08:30:35.501Z,11.50
2022-08-17T08:31:40.196Z,6.70
2022-08-17T08:32:36.481Z,7.80
2022-08-17T08:33:35.534Z,10.10
2022-08-17T08:34:53.467Z,13.30
2022-08-17T08:35:36.690Z,9.90
2022-08-17T08:37:12.639Z,7.30
2022-08-17T08:37:41.993Z,7.90
2022-08-17T08:38:36.425Z,9.10
2022-08-17T08:39:35.334Z,6.60
2022-08-17T08:40:35.911Z,7.90
2022-08-17T08:41:35.453Z,11.80
2022-08-17T08:42:35.257Z,8.70
2022-08-17T08:43:36.163Z,6.70
2022-08-17T08:45:00.112Z,7.00
2022-08-17T08:45:37.336Z,7.60
2022-08-17T08:46:35.163Z,7.40
2022-08-17T08:47:46.257Z,7.30
2022-08-17T08:48:53.941Z,7.40
2022-08-17T08:50:02.170Z,7.60
2022-08-17T08:50:37.929Z,8.20
2022-08-17T08:51:35.271Z,10.20
2022-08-17T08:52:35.094Z,9.00
2022-08-17T08:53:35.018Z,8.30
2022-08-17T08:54:35.049Z,11.70
2022-08-17T08:55:35.009Z,7.40
2022-08-17T08:56:34.983Z,8.60
2022-08-17T08:57:34.985Z,7.70
2022-08-17T08:58:41.647Z,7.00
2022-08-17T08:59:35.950Z,7.00
2022-08-17T09:00:35.952Z,6.80
2022-08-17T09:01:34.946Z,6.60
2022-08-17T09:02:35.150Z,6.20
2022-08-17T09:03:51.718Z,7.60
2022-08-17T09:04:55.915Z,6.00
2022-08-17T09:05:35.878Z,6.60
2022-08-17T09:06:38.562Z,6.20
2022-08-17T09:07:35.831Z,5.70
2022-08-17T09:08:34.819Z,7.10
2022-08-17T09:09:34.858Z,8.40
2022-08-17T09:10:34.821Z,5.80
2022-08-17T09:11:34.797Z,8.60
2022-08-17T09:12:36.057Z,7.80
2022-08-17T09:13:34.792Z,6.30
2022-08-17T09:14:45.021Z,6.90
2022-08-17T09:15:35.737Z,6.80
2022-08-17T09:16:34.717Z,6.80
2022-08-17T09:17:34.783Z,8.30
2022-08-17T09:19:00.202Z,5.60
2022-08-17T09:19:36.330Z,8.30
2022-08-17T09:20:34.685Z,8.80
2022-08-17T09:21:34.749Z,9.40
2022-08-17T09:22:34.656Z,7.80
2022-08-17T09:23:34.635Z,7.50
2022-08-17T09:24:34.627Z,8.10
2022-08-17T09:25:34.615Z,7.40
2022-08-17T09:26:34.585Z,12.80
2022-08-17T09:27:34.596Z,11.50
2022-08-17T09:28:34.619Z,19.80
2022-08-17T09:29:34.564Z,30.50
2022-08-17T09:30:34.573Z,32.50
2022-08-17T09:31:34.583Z,34.00
2022-08-17T09:32:35.583Z,35.00
2022-08-17T09:33:34.513Z,31.10
2022-08-17T09:34:34.522Z,31.20
2022-08-17T09:35:37.007Z,25.00
2022-08-17T09:36:34.464Z,27.10
2022-08-17T09:37:34.442Z,30.00
2022-08-17T09:38:34.449Z,26.40
2022-08-17T09:39:34.513Z,26.60
2022-08-17T09:40:34.455Z,24.20
2022-08-17T09:41:34.421Z,21.40
2022-08-17T09:42:34.392Z,20.10
2022-08-17T09:43:34.381Z,18.10
2022-08-17T09:44:34.383Z,17.40
2022-08-17T09:45:34.341Z,10.10
2022-08-17T09:46:34.350Z,13.90
2022-08-17T09:47:34.342Z,11.90
2022-08-17T09:48:34.353Z,8.20
2022-08-17T09:49:34.309Z,9.50
2022-08-17T09:51:05.014Z,8.40
2022-08-17T09:51:35.326Z,9.70
2022-08-17T09:52:34.269Z,10.40
2022-08-17T09:53:34.298Z,10.90
2022-08-17T09:54:39.065Z,11.50
2022-08-17T09:55:35.238Z,8.00
2022-08-17T09:56:34.208Z,9.00
2022-08-17T09:57:34.200Z,11.10
2022-08-17T09:58:34.197Z,7.00
2022-08-17T09:59:38.305Z,8.20
2022-08-17T10:00:34.166Z,6.20
2022-08-17T10:01:34.306Z,6.50
2022-08-17T10:02:34.187Z,7.80
2022-08-17T10:03:34.160Z,9.00
2022-08-17T10:04:34.126Z,10.60
2022-08-17T10:05:34.114Z,6.60
2022-08-17T10:06:34.136Z,7.90
2022-08-17T10:07:34.087Z,9.20
2022-08-17T10:08:34.057Z,8.40
2022-08-17T10:09:34.085Z,7.70
2022-08-17T10:10:34.033Z,11.50
2022-08-17T10:11:34.069Z,6.60
2022-08-17T10:12:34.054Z,9.10
2022-08-17T10:13:34.002Z,9.30
2022-08-17T10:14:38.013Z,8.60
2022-08-17T10:15:34.974Z,9.60
2022-08-17T10:16:34.037Z,11.90
2022-08-17T10:17:33.945Z,10.10
2022-08-17T10:18:33.956Z,10.00
2022-08-17T10:19:33.933Z,10.90
2022-08-17T10:20:33.945Z,14.30
2022-08-17T10:21:33.916Z,11.70
2022-08-17T10:22:35.222Z,15.70
2022-08-17T10:23:33.912Z,13.40
2022-08-17T10:24:33.863Z,12.90
2022-08-17T10:25:53.487Z,15.30
2022-08-17T10:26:46.240Z,11.90
2022-08-17T10:27:34.821Z,9.20
2022-08-17T10:28:33.828Z,9.80
2022-08-17T10:29:47.357Z,11.20
2022-08-17T10:30:34.851Z,11.80
2022-08-17T10:31:35.495Z,11.40
2022-08-17T10:32:33.802Z,10.80
2022-08-17T10:33:33.753Z,11.40
2022-08-17T10:34:38.907Z,10.10
2022-08-17T10:35:34.719Z,11.00
2022-08-17T10:36:33.701Z,12.20
2022-08-17T10:37:33.861Z,8.40
2022-08-17T10:38:33.672Z,10.10
2022-08-17T10:39:33.717Z,9.70
2022-08-17T10:40:33.754Z,8.50
2022-08-17T10:41:38.210Z,8.60
2022-08-17T10:42:34.628Z,11.70
2022-08-17T10:43:33.638Z,6.50
2022-08-17T10:44:38.008Z,9.50
2022-08-17T10:45:34.579Z,10.30
2022-08-17T10:46:33.579Z,10.00
2022-08-17T10:47:47.241Z,9.20
2022-08-17T10:48:34.624Z,14.30
2022-08-17T10:49:33.526Z,11.00
2022-08-17T10:50:33.537Z,9.30
2022-08-17T10:51:33.496Z,11.80
2022-08-17T10:52:33.487Z,11.00
2022-08-17T10:53:34.193Z,7.60
2022-08-17T10:54:33.495Z,7.90
2022-08-17T10:55:33.445Z,8.80
2022-08-17T10:56:33.660Z,9.30
2022-08-17T10:57:33.443Z,8.40
2022-08-17T10:58:33.416Z,9.90
2022-08-17T10:59:33.429Z,8.80
2022-08-17T11:00:33.544Z,5.40
2022-08-17T11:01:33.418Z,8.30
2022-08-17T11:02:33.366Z,6.60
2022-08-17T11:03:33.616Z,6.90
2022-08-17T11:04:33.411Z,8.00
2022-08-17T11:05:33.319Z,6.10
2022-08-17T11:06:33.355Z,8.00
2022-08-17T11:07:33.397Z,7.50
2022-08-17T11:08:33.283Z,7.50
2022-08-17T11:09:33.293Z,7.00
2022-08-17T11:10:33.282Z,6.70
2022-08-17T11:11:33.254Z,6.00
2022-08-17T11:12:33.242Z,9.20
2022-08-17T11:13:33.251Z,11.30
2022-08-17T11:14:33.246Z,9.60
2022-08-17T11:15:33.211Z,7.50
2022-08-17T11:16:33.295Z,6.70
2022-08-17T11:17:33.170Z,7.80
2022-08-17T11:18:33.170Z,7.30
2022-08-17T11:19:33.199Z,7.20
2022-08-17T11:20:33.139Z,9.10
2022-08-17T11:21:33.130Z,9.10
2022-08-17T11:22:33.767Z,9.20
2022-08-17T11:23:33.148Z,8.50
2022-08-17T11:24:33.097Z,7.10
2022-08-17T11:25:33.079Z,7.40
2022-08-17T11:26:33.261Z,7.50
2022-08-17T11:27:33.050Z,7.20
2022-08-17T11:28:33.208Z,8.40
2022-08-17T11:29:33.080Z,6.20
2022-08-17T11:30:33.031Z,5.30
2022-08-17T11:31:37.823Z,7.00
2022-08-17T11:32:34.029Z,9.60
2022-08-17T11:33:32.997Z,6.30
2022-08-17T11:34:32.979Z,5.70
2022-08-17T11:35:32.976Z,6.90
2022-08-17T11:36:33.048Z,6.00
2022-08-17T11:37:32.919Z,6.40
2022-08-17T11:38:32.947Z,5.80
2022-08-17T11:39:32.958Z,7.40
2022-08-17T11:40:32.960Z,6.00
2022-08-17T11:41:32.915Z,6.40
2022-08-17T11:42:32.865Z,6.30
2022-08-17T11:43:32.942Z,6.70
2022-08-17T11:44:32.881Z,5.60
2022-08-17T11:45:33.200Z,5.80
2022-08-17T11:46:32.828Z,7.70
2022-08-17T11:47:32.898Z,5.70
2022-08-17T11:48:33.163Z,6.80
2022-08-17T11:49:32.767Z,5.50
2022-08-17T11:50:32.764Z,6.00
2022-08-17T11:51:32.778Z,6.80
2022-08-17T11:52:32.737Z,5.90
2022-08-17T11:53:32.726Z,5.30
2022-08-17T11:54:34.347Z,6.80
2022-08-17T11:55:39.589Z,5.80
2022-08-17T11:56:34.602Z,4.70
2022-08-17T11:57:32.709Z,4.90
2022-08-17T11:58:32.644Z,4.70
2022-08-17T11:59:32.762Z,5.50
2022-08-17T12:00:32.624Z,5.80
2022-08-17T12:01:32.662Z,5.90
2022-08-17T12:02:32.894Z,5.40
2022-08-17T12:03:32.661Z,8.60
2022-08-17T12:04:32.754Z,7.50
2022-08-17T12:05:32.574Z,6.50
2022-08-17T12:06:32.640Z,6.80
2022-08-17T12:07:32.620Z,4.80
2022-08-17T12:08:32.538Z,12.60
2022-08-17T12:09:32.594Z,8.30
2022-08-17T12:10:32.537Z,7.70
2022-08-17T12:11:55.461Z,5.70
2022-08-17T12:12:33.595Z,6.90
2022-08-17T12:13:38.481Z,5.90
2022-08-17T12:15:05.966Z,6.20
2022-08-17T12:15:33.433Z,5.30
2022-08-17T12:16:32.692Z,5.70
2022-08-17T12:17:40.716Z,5.20
2022-08-17T12:18:33.410Z,7.10
2022-08-17T12:19:36.371Z,8.00
2022-08-17T12:20:32.360Z,7.40
2022-08-17T12:21:32.347Z,7.80
2022-08-17T12:22:32.394Z,5.80
2022-08-17T12:23:32.329Z,6.60
2022-08-17T12:24:32.328Z,4.90
2022-08-17T12:25:32.351Z,6.10
2022-08-17T12:26:32.369Z,6.80
2022-08-17T12:27:54.811Z,5.50
2022-08-17T12:28:33.293Z,5.00
2022-08-17T12:29:35.876Z,7.20
2022-08-17T12:30:33.257Z,7.70
2022-08-17T12:31:32.291Z,7.20
2022-08-17T12:32:32.217Z,6.30
2022-08-17T12:33:32.216Z,6.70
2022-08-17T12:34:32.254Z,6.60
2022-08-17T12:35:32.177Z,5.60
2022-08-17T12:36:32.196Z,6.50
2022-08-17T12:37:32.379Z,5.10
2022-08-17T12:38:33.553Z,6.20
2022-08-17T12:39:34.010Z,6.20
2022-08-17T12:40:32.143Z,6.80
2022-08-17T12:41:32.226Z,7.60
2022-08-17T12:42:32.122Z,5.70
2022-08-17T12:43:32.071Z,5.80
2022-08-17T12:44:32.084Z,5.60
2022-08-17T12:45:35.167Z,6.50
2022-08-17T12:46:32.105Z,7.40
2022-08-17T12:47:32.047Z,6.70
2022-08-17T12:48:32.006Z,6.00
2022-08-17T12:49:32.108Z,5.90
2022-08-17T12:50:32.021Z,6.30
2022-08-17T12:51:32.189Z,7.10
2022-08-17T12:52:31.974Z,6.80
2022-08-17T12:53:31.993Z,7.60
2022-08-17T12:54:31.956Z,5.40
2022-08-17T12:55:33.739Z,6.00
2022-08-17T12:56:31.913Z,5.60
2022-08-17T12:57:31.943Z,5.30
2022-08-17T12:58:31.882Z,6.40
2022-08-17T12:59:31.921Z,4.90
2022-08-17T13:00:32.056Z,5.80
2022-08-17T13:01:31.870Z,8.60
2022-08-17T13:02:31.855Z,9.10
2022-08-17T13:03:35.849Z,9.40
2022-08-17T13:04:31.834Z,10.40
2022-08-17T13:05:31.896Z,15.60
2022-08-17T13:06:31.839Z,12.90
2022-08-17T13:07:31.907Z,16.10
2022-08-17T13:08:31.827Z,16.30
2022-08-17T13:09:40.100Z,12.70
2022-08-17T13:10:33.455Z,10.10
2022-08-17T13:11:31.756Z,8.60
2022-08-17T13:12:31.760Z,6.10
2022-08-17T13:13:31.872Z,8.50
2022-08-17T13:14:32.541Z,7.00
2022-08-17T13:15:31.660Z,6.30
2022-08-17T13:16:31.680Z,11.30